CheckWX is a tool to help pilots better visualize weather data.  It is not intended as a substitute for an official pre-flight weather briefing.

18:57:30 UTC

KCVB METAR
Castroville Municipal Airport
Castroville, Texas, USA
Current

23 mins ago

KCVB 221835Z AUTO 00000KT 10SM OVC012 17/12 A2995 RMK AO2 T01740122
Observed
Feb-22 @ 18:35 UTC
Visibility
10 SM
Flight Rules
MVFR
Cloud Levels
  • Overcast at 1,200' AGL
Temperature
17°C / 63°F
Dewpoint
12°C / 54°F
Humidity
73%
Altimeter
29.95" Hg
Pressure
1014.22 hPa
Previous

43 mins ago

KCVB 221815Z AUTO 00000KT 7SM OVC010 17/13 A2995 RMK AO2 T01740131
Observed
Feb-22 @ 18:15 UTC
Visibility
7 SM
Flight Rules
MVFR
Cloud Levels
  • Overcast at 1,000' AGL
Temperature
17°C / 63°F
Dewpoint
13°C / 55°F
Humidity
77%
Altimeter
29.95" Hg
Pressure
1014.22 hPa
Previous

1 hour ago

KCVB 221755Z AUTO 00000KT 7SM OVC008 17/13 A2997 RMK AO2 T01650133 10165 20110
Observed
Feb-22 @ 17:55 UTC
Visibility
7 SM
Flight Rules
IFR
Cloud Levels
  • Overcast at 800' AGL
Temperature
17°C / 63°F
Dewpoint
13°C / 55°F
Humidity
77%
Altimeter
29.97" Hg
Pressure
1014.92 hPa